createdAt,value
2019-05-05T00:02:17.403Z,7.87
2019-05-05T00:05:11.638Z,7.60
2019-05-05T00:07:41.460Z,7.63
2019-05-05T00:10:15.108Z,7.20
2019-05-05T00:12:55.155Z,7.83
2019-05-05T00:15:57.352Z,8.23
2019-05-05T00:18:28.339Z,7.83
2019-05-05T00:20:58.515Z,9.13
2019-05-05T00:23:28.439Z,7.60
2019-05-05T00:25:58.170Z,7.93
2019-05-05T00:28:27.964Z,8.50
2019-05-05T00:30:57.637Z,8.60
2019-05-05T00:33:27.266Z,7.20
2019-05-05T00:35:57.107Z,9.53
2019-05-05T00:38:27.165Z,9.10
2019-05-05T00:40:57.647Z,9.37
2019-05-05T00:43:28.061Z,10.00
2019-05-05T00:46:04.671Z,10.30
2019-05-05T00:48:40.353Z,9.77
2019-05-05T00:51:10.081Z,10.23
2019-05-05T00:53:39.902Z,9.30
2019-05-05T00:56:09.628Z,9.70
2019-05-05T00:58:44.640Z,9.87
2019-05-05T01:01:41.634Z,9.83
2019-05-05T01:04:14.471Z,10.40
2019-05-05T01:06:45.919Z,9.23
2019-05-05T01:09:19.568Z,10.20
2019-05-05T01:11:49.597Z,10.10
2019-05-05T01:14:19.187Z,9.67
2019-05-05T01:16:49.113Z,9.40
2019-05-05T01:19:19.278Z,9.67
2019-05-05T01:21:49.019Z,10.00
2019-05-05T01:24:18.644Z,10.00
2019-05-05T01:26:48.282Z,9.67
2019-05-05T01:29:18.003Z,9.67
2019-05-05T01:31:48.110Z,8.77
2019-05-05T01:34:24.479Z,9.50
2019-05-05T01:37:00.485Z,9.00
2019-05-05T01:39:55.294Z,10.67
2019-05-05T01:42:24.970Z,9.57
2019-05-05T01:44:55.320Z,10.17
2019-05-05T01:47:25.565Z,9.40
2019-05-05T01:49:55.688Z,8.97
2019-05-05T01:52:25.583Z,10.67
2019-05-05T01:54:55.075Z,9.30
2019-05-05T01:57:25.474Z,10.47
2019-05-05T02:00:14.905Z,10.17
2019-05-05T02:02:45.002Z,10.37
2019-05-05T02:05:15.021Z,11.20
2019-05-05T02:07:45.015Z,11.57
2019-05-05T02:10:15.428Z,10.97
2019-05-05T02:12:45.670Z,11.30
2019-05-05T02:15:15.439Z,9.93
2019-05-05T02:17:45.349Z,10.70
2019-05-05T02:20:40.863Z,11.57
2019-05-05T02:23:12.568Z,9.73
2019-05-05T02:25:44.709Z,11.53
2019-05-05T02:28:14.934Z,9.60
2019-05-05T02:30:55.138Z,9.50
2019-05-05T02:33:26.157Z,9.03
2019-05-05T02:35:56.259Z,10.30
2019-05-05T02:38:26.348Z,8.90
2019-05-05T02:40:57.295Z,10.23
2019-05-05T02:43:28.265Z,8.70
2019-05-05T02:46:14.328Z,8.80
2019-05-05T02:48:45.328Z,9.13
2019-05-05T02:51:16.103Z,9.03
2019-05-05T02:53:49.075Z,8.43
2019-05-05T02:56:24.544Z,9.07
2019-05-05T02:58:56.977Z,8.77
2019-05-05T03:01:45.508Z,9.63
2019-05-05T03:04:16.002Z,8.50
2019-05-05T03:06:49.481Z,8.60
2019-05-05T03:09:21.601Z,8.83
2019-05-05T03:11:54.731Z,9.80
2019-05-05T03:14:26.953Z,8.93
2019-05-05T03:16:57.560Z,10.10
2019-05-05T03:19:28.353Z,9.40
2019-05-05T03:21:59.151Z,9.77
2019-05-05T03:24:28.844Z,9.87
2019-05-05T03:26:58.782Z,9.10
2019-05-05T03:29:28.865Z,9.50
2019-05-05T03:31:59.117Z,9.30
2019-05-05T03:34:28.897Z,8.40
2019-05-05T03:36:58.886Z,10.17
2019-05-05T03:39:31.526Z,9.43
2019-05-05T03:42:24.511Z,8.93
2019-05-05T03:44:57.111Z,8.80
2019-05-05T03:47:27.902Z,9.10
2019-05-05T03:49:57.931Z,8.60
2019-05-05T03:52:28.264Z,8.33
2019-05-05T03:54:58.851Z,9.17
2019-05-05T03:57:28.800Z,8.77
2019-05-05T03:59:58.949Z,9.17
2019-05-05T04:02:48.036Z,8.30
2019-05-05T04:05:24.792Z,8.10
2019-05-05T04:07:54.651Z,8.43
2019-05-05T04:10:24.723Z,8.03
2019-05-05T04:12:55.756Z,7.00
2019-05-05T04:15:25.992Z,7.70
2019-05-05T04:18:08.275Z,8.03
2019-05-05T04:20:40.009Z,8.60
2019-05-05T04:23:09.747Z,7.37
2019-05-05T04:25:39.547Z,7.50
2019-05-05T04:28:09.270Z,7.87
2019-05-05T04:30:38.995Z,7.50
2019-05-05T04:33:08.780Z,7.63
2019-05-05T04:35:38.626Z,7.20
2019-05-05T04:38:08.274Z,6.53
2019-05-05T04:40:38.216Z,8.37
2019-05-05T04:43:08.213Z,6.33
2019-05-05T04:45:37.871Z,6.77
2019-05-05T04:48:24.169Z,6.07
2019-05-05T04:51:17.213Z,6.60
2019-05-05T04:54:04.725Z,6.70
2019-05-05T04:56:34.970Z,7.40
2019-05-05T04:59:05.077Z,7.50
2019-05-05T05:01:35.607Z,6.60
2019-05-05T05:04:30.857Z,7.07
2019-05-05T05:07:00.656Z,6.97
2019-05-05T05:09:30.722Z,7.07
2019-05-05T05:12:00.717Z,7.10
2019-05-05T05:14:30.459Z,7.30
2019-05-05T05:17:03.477Z,7.13
2019-05-05T05:19:33.818Z,8.10
2019-05-05T05:22:04.918Z,7.40
2019-05-05T05:24:34.998Z,8.57
2019-05-05T05:27:05.140Z,7.43
2019-05-05T05:29:35.102Z,7.20
2019-05-05T05:32:05.331Z,7.07
2019-05-05T05:34:35.309Z,6.83
2019-05-05T05:37:04.871Z,7.50
2019-05-05T05:39:46.476Z,7.23
2019-05-05T05:42:16.059Z,6.67
2019-05-05T05:45:01.039Z,6.53
2019-05-05T05:47:49.693Z,5.80
2019-05-05T05:50:26.252Z,6.40
2019-05-05T05:52:56.188Z,5.40
2019-05-05T05:55:25.877Z,6.27
2019-05-05T05:57:55.531Z,5.50
2019-05-05T06:00:25.408Z,5.67
2019-05-05T06:02:55.524Z,5.80
2019-05-05T06:05:25.250Z,5.13
2019-05-05T06:07:55.196Z,5.47
2019-05-05T06:10:27.444Z,4.93
2019-05-05T06:12:56.519Z,4.40
2019-05-05T06:15:26.442Z,5.27
2019-05-05T06:17:56.159Z,4.50
2019-05-05T06:20:25.853Z,4.60
2019-05-05T06:22:55.647Z,4.30
2019-05-05T06:25:26.805Z,5.20
2019-05-05T06:27:56.746Z,5.10
2019-05-05T06:30:26.523Z,4.57
2019-05-05T06:32:56.603Z,3.97
2019-05-05T06:35:27.013Z,4.97
2019-05-05T06:37:56.783Z,4.57
2019-05-05T06:40:44.419Z,5.30
2019-05-05T06:43:44.000Z,4.70
2019-05-05T06:46:16.162Z,4.80
2019-05-05T06:48:46.229Z,5.87
2019-05-05T06:51:15.981Z,5.20
2019-05-05T06:53:45.822Z,5.03
2019-05-05T06:56:15.975Z,4.90
2019-05-05T06:58:46.263Z,4.80
2019-05-05T07:01:16.002Z,4.60
2019-05-05T07:28:46.022Z,4.40
2019-05-05T07:31:15.872Z,5.00
2019-05-05T07:49:14.629Z,5.57
2019-05-05T07:51:44.545Z,4.07
2019-05-05T07:54:14.675Z,4.67
2019-05-05T07:56:44.592Z,3.90
2019-05-05T08:01:46.715Z,5.50
2019-05-05T08:04:15.859Z,5.87
2019-05-05T08:06:45.604Z,6.13
2019-05-05T08:09:15.661Z,5.90
2019-05-05T08:11:45.427Z,6.77
2019-05-05T08:14:15.713Z,5.77
2019-05-05T08:17:16.153Z,5.07
2019-05-05T08:28:08.892Z,5.90
2019-05-05T08:31:03.801Z,5.63
2019-05-05T08:33:33.664Z,5.00
2019-05-05T08:36:04.620Z,4.70
2019-05-05T08:38:34.841Z,5.80
2019-05-05T08:41:05.117Z,6.20
2019-05-05T08:43:35.143Z,4.80
2019-05-05T08:46:05.728Z,4.50
2019-05-05T09:01:04.498Z,4.97
2019-05-05T09:03:34.167Z,5.03
2019-05-05T09:06:04.709Z,5.30
2019-05-05T09:08:34.768Z,5.73
2019-05-05T09:11:04.996Z,6.30
2019-05-05T09:13:34.780Z,5.83
2019-05-05T09:16:04.544Z,5.53
2019-05-05T09:18:36.659Z,6.00
2019-05-05T09:36:46.681Z,5.20
2019-05-05T09:41:45.636Z,5.10
2019-05-05T09:44:15.834Z,5.00
2019-05-05T09:46:45.480Z,4.70
2019-05-05T09:49:15.456Z,4.93
2019-05-05T09:51:45.193Z,5.50
2019-05-05T09:54:17.356Z,5.70
2019-05-05T09:56:46.252Z,5.03
2019-05-05T09:59:16.308Z,5.53
2019-05-05T10:01:46.189Z,5.27
2019-05-05T10:04:15.962Z,5.93
2019-05-05T10:06:47.913Z,5.83
2019-05-05T10:09:17.465Z,5.37
2019-05-05T10:11:47.238Z,4.63
2019-05-05T10:14:17.410Z,5.30
2019-05-05T10:16:47.087Z,3.90
2019-05-05T10:19:16.812Z,4.63
2019-05-05T10:21:46.891Z,4.40
2019-05-05T10:24:30.990Z,4.50
2019-05-05T10:26:59.462Z,4.57
2019-05-05T10:29:29.250Z,4.83
2019-05-05T10:31:59.196Z,4.63
2019-05-05T10:34:28.856Z,4.97
2019-05-05T10:36:58.569Z,4.20
2019-05-05T10:39:36.179Z,4.33
2019-05-05T10:42:06.365Z,4.33
2019-05-05T10:44:36.458Z,5.00
2019-05-05T10:47:08.039Z,5.23
2019-05-05T10:49:38.077Z,4.33
2019-05-05T10:52:08.621Z,5.10
2019-05-05T10:54:44.068Z,5.17
2019-05-05T10:57:10.730Z,4.90
2019-05-05T10:59:40.878Z,4.70
2019-05-05T11:02:11.136Z,6.07
2019-05-05T11:04:40.810Z,5.30
2019-05-05T11:07:10.760Z,4.80
2019-05-05T11:09:40.820Z,5.07
2019-05-05T11:12:11.126Z,4.67
2019-05-05T11:14:40.793Z,4.47
2019-05-05T11:17:10.523Z,4.50
2019-05-05T11:19:40.491Z,5.60
2019-05-05T11:22:10.508Z,4.70
2019-05-05T11:24:53.728Z,4.87
2019-05-05T11:27:12.591Z,4.50
2019-05-05T11:30:03.779Z,4.50
2019-05-05T11:32:50.850Z,4.30
2019-05-05T11:35:24.328Z,4.77
2019-05-05T11:37:54.291Z,4.67
2019-05-05T11:40:34.084Z,4.23
2019-05-05T11:43:04.365Z,4.53
2019-05-05T11:45:34.792Z,4.10
2019-05-05T11:48:04.464Z,3.90
2019-05-05T11:50:35.095Z,4.17
2019-05-05T11:53:05.428Z,3.90
2019-05-05T11:55:35.611Z,3.93
2019-05-05T11:58:06.372Z,4.10
2019-05-05T12:00:36.135Z,3.67
2019-05-05T12:03:06.290Z,3.40
2019-05-05T12:05:36.088Z,3.40
2019-05-05T12:08:06.867Z,3.37
2019-05-05T12:10:51.444Z,3.93
2019-05-05T12:13:21.359Z,3.93
2019-05-05T12:15:57.247Z,3.93
2019-05-05T12:18:28.016Z,4.53
2019-05-05T12:20:58.106Z,3.80
2019-05-05T12:23:28.282Z,5.23
2019-05-05T12:26:32.270Z,4.50
2019-05-05T12:29:11.217Z,4.33
2019-05-05T12:31:44.656Z,4.03
2019-05-05T12:34:14.505Z,4.60
2019-05-05T12:36:44.617Z,4.13
2019-05-05T12:39:14.965Z,5.00
2019-05-05T12:41:45.019Z,4.60
2019-05-05T12:44:23.683Z,5.00
2019-05-05T12:47:19.246Z,5.43
2019-05-05T12:49:49.072Z,5.40
2019-05-05T12:52:18.727Z,5.10
2019-05-05T12:54:48.804Z,5.77
2019-05-05T12:57:19.029Z,4.50
2019-05-05T12:59:49.034Z,4.30
2019-05-05T13:02:18.977Z,4.80
2019-05-05T13:04:48.773Z,3.70
2019-05-05T13:07:18.871Z,4.50
2019-05-05T13:09:49.081Z,3.83
2019-05-05T13:12:18.886Z,4.43
2019-05-05T13:14:48.857Z,3.80
2019-05-05T13:17:19.258Z,5.37
2019-05-05T13:19:57.967Z,4.47
2019-05-05T13:22:44.454Z,4.00
2019-05-05T13:25:55.422Z,4.63
2019-05-05T13:28:14.672Z,3.90
2019-05-05T13:30:44.346Z,4.80
2019-05-05T13:33:14.227Z,4.20
2019-05-05T13:35:43.869Z,3.50
2019-05-05T13:38:14.607Z,5.13
2019-05-05T13:40:44.321Z,4.77
2019-05-05T13:43:14.541Z,5.10
2019-05-05T13:45:51.018Z,4.37
2019-05-05T13:48:20.659Z,4.60
2019-05-05T13:50:53.866Z,4.70
2019-05-05T13:53:23.769Z,5.37
2019-05-05T13:56:08.604Z,4.90
2019-05-05T13:58:26.598Z,3.80
2019-05-05T14:00:56.415Z,4.67
2019-05-05T14:03:26.105Z,4.20
2019-05-05T14:05:55.834Z,3.80
2019-05-05T14:08:26.228Z,3.40
2019-05-05T14:10:55.964Z,4.07
2019-05-05T14:13:25.712Z,3.83
2019-05-05T14:15:55.854Z,4.10
2019-05-05T14:18:25.910Z,4.00
2019-05-05T14:20:56.148Z,3.63
2019-05-05T14:23:27.189Z,3.53
2019-05-05T14:25:56.892Z,3.83
2019-05-05T14:28:27.107Z,3.80
2019-05-05T14:31:14.220Z,3.73
2019-05-05T14:34:00.834Z,3.27
2019-05-05T14:36:40.241Z,3.40
2019-05-05T14:39:11.107Z,2.87
2019-05-05T14:41:41.308Z,3.40
2019-05-05T14:44:13.340Z,3.80
2019-05-05T14:46:44.530Z,3.47
2019-05-05T14:49:14.405Z,2.60
2019-05-05T14:51:44.777Z,4.00
2019-05-05T14:54:14.941Z,3.40
2019-05-05T14:56:44.631Z,3.40
2019-05-05T14:59:14.731Z,3.97
2019-05-05T15:01:44.956Z,3.30
2019-05-05T15:04:16.504Z,7.50
2019-05-05T15:06:54.414Z,3.47
2019-05-05T15:09:44.044Z,4.10
2019-05-05T15:12:31.802Z,4.13
2019-05-05T15:15:03.919Z,4.80
2019-05-05T15:17:33.839Z,4.10
2019-05-05T15:20:03.646Z,4.03
2019-05-05T15:22:34.375Z,4.67
2019-05-05T15:25:04.468Z,4.43
2019-05-05T15:27:34.844Z,3.90
2019-05-05T15:30:05.246Z,4.23
2019-05-05T15:32:35.490Z,4.20
2019-05-05T15:35:05.580Z,5.10
2019-05-05T15:37:35.277Z,3.83
2019-05-05T15:40:05.623Z,4.37
2019-05-05T15:42:35.292Z,4.00
2019-05-05T15:45:05.836Z,3.90
2019-05-05T15:47:35.626Z,3.80
2019-05-05T15:50:06.044Z,4.90
2019-05-05T15:52:35.863Z,3.73
2019-05-05T15:55:06.229Z,3.73
2019-05-05T15:57:35.993Z,3.53
2019-05-05T16:00:25.836Z,3.70
2019-05-05T16:02:55.893Z,3.70
2019-05-05T16:05:26.047Z,3.80
2019-05-05T16:07:55.887Z,3.97
2019-05-05T16:10:25.554Z,4.00
2019-05-05T16:12:55.251Z,4.20
2019-05-05T16:15:50.197Z,4.63
2019-05-05T16:18:25.494Z,3.97
2019-05-05T16:21:03.630Z,3.60
2019-05-05T16:23:36.081Z,4.83
2019-05-05T16:26:05.801Z,3.97
2019-05-05T16:28:36.127Z,3.63
2019-05-05T16:31:06.629Z,4.53
2019-05-05T16:33:36.178Z,4.20
2019-05-05T16:36:06.429Z,4.47
2019-05-05T16:38:36.334Z,4.33
2019-05-05T16:41:06.288Z,4.70
2019-05-05T16:43:35.860Z,5.20
2019-05-05T16:46:25.108Z,4.40
2019-05-05T16:48:55.161Z,4.33
2019-05-05T16:51:29.161Z,3.90
2019-05-05T16:54:00.582Z,3.83
2019-05-05T16:56:30.279Z,4.17
2019-05-05T16:59:00.227Z,5.17
2019-05-05T17:01:30.039Z,3.67
2019-05-05T17:04:09.213Z,4.07
2019-05-05T17:06:31.315Z,3.47
2019-05-05T17:09:01.052Z,4.07
2019-05-05T17:11:30.828Z,3.70
2019-05-05T17:14:08.245Z,3.93
2019-05-05T17:17:09.320Z,4.00
2019-05-05T17:20:01.708Z,4.20
2019-05-05T17:22:39.007Z,4.50
2019-05-05T17:25:10.250Z,3.70
2019-05-05T17:27:48.707Z,6.47
2019-05-05T17:30:12.159Z,4.40
2019-05-05T17:32:43.739Z,5.10
2019-05-05T17:35:14.384Z,4.20
2019-05-05T17:37:44.318Z,4.03
2019-05-05T17:40:37.777Z,4.33
2019-05-05T17:43:24.881Z,5.37
2019-05-05T17:46:14.157Z,4.87
2019-05-05T17:48:49.306Z,5.17
2019-05-05T17:51:31.368Z,4.80
2019-05-05T17:54:20.126Z,4.73
2019-05-05T17:56:52.461Z,4.30
2019-05-05T17:59:23.695Z,4.40
2019-05-05T18:01:53.993Z,4.70
2019-05-05T18:04:23.716Z,3.70
2019-05-05T18:06:55.438Z,4.60
2019-05-05T18:09:44.339Z,5.03
2019-05-05T18:12:20.569Z,4.10
2019-05-05T18:14:51.020Z,4.33
2019-05-05T18:17:20.856Z,3.80
2019-05-05T18:19:53.465Z,4.43
2019-05-05T18:22:24.651Z,4.57
2019-05-05T18:24:54.188Z,4.33
2019-05-05T18:27:24.212Z,3.60
2019-05-05T18:29:58.438Z,3.53
2019-05-05T18:32:36.030Z,4.40
2019-05-05T18:35:13.568Z,4.03
2019-05-05T18:37:44.513Z,4.10
2019-05-05T18:40:19.581Z,4.17
2019-05-05T18:42:51.283Z,3.77
2019-05-05T18:45:23.711Z,4.27
2019-05-05T18:48:13.889Z,3.33
2019-05-05T18:50:57.708Z,3.63
2019-05-05T18:53:30.651Z,4.00
2019-05-05T18:56:03.775Z,4.77
2019-05-05T18:58:45.171Z,4.60
2019-05-05T19:01:38.647Z,3.23
2019-05-05T19:04:38.635Z,3.50
2019-05-05T19:07:30.583Z,3.77
2019-05-05T19:10:04.029Z,5.10
2019-05-05T19:12:50.621Z,4.17
2019-05-05T19:15:34.928Z,4.60
2019-05-05T19:18:25.342Z,4.70
2019-05-05T19:21:25.825Z,5.10
2019-05-05T19:24:00.408Z,4.70
2019-05-05T19:26:30.127Z,5.30
2019-05-05T19:29:04.986Z,5.73
2019-05-05T19:32:04.379Z,6.60
2019-05-05T19:34:48.761Z,4.53
2019-05-05T19:37:20.152Z,5.10
2019-05-05T19:40:00.101Z,4.50
2019-05-05T19:42:32.151Z,4.47
2019-05-05T19:45:26.798Z,4.47
2019-05-05T19:47:57.031Z,4.40
2019-05-05T19:50:33.735Z,4.70
2019-05-05T19:53:04.909Z,4.53
2019-05-05T19:55:36.392Z,4.40
2019-05-05T19:58:06.997Z,4.53
2019-05-05T20:00:38.610Z,5.40
2019-05-05T20:03:09.231Z,4.10
2019-05-05T20:05:43.107Z,3.80
2019-05-05T20:08:14.267Z,3.83
2019-05-05T20:10:44.488Z,4.67
2019-05-05T20:13:14.760Z,4.10
2019-05-05T20:15:50.991Z,3.40
2019-05-05T20:18:21.528Z,4.00
2019-05-05T20:21:03.177Z,3.70
2019-05-05T20:23:24.361Z,3.50
2019-05-05T20:25:56.696Z,5.70
2019-05-05T20:28:25.890Z,3.53
2019-05-05T20:30:55.965Z,3.40
2019-05-05T20:33:43.741Z,4.70
2019-05-05T20:36:16.779Z,4.67
2019-05-05T20:38:51.977Z,3.43
2019-05-05T20:41:24.917Z,4.30
2019-05-05T20:43:55.171Z,4.73
2019-05-05T20:46:25.267Z,3.80
2019-05-05T20:48:55.278Z,3.73
2019-05-05T20:51:25.150Z,4.93
2019-05-05T20:53:55.166Z,4.40
2019-05-05T20:56:24.824Z,3.50
2019-05-05T20:58:54.991Z,4.50
2019-05-05T21:01:24.908Z,3.63
2019-05-05T21:03:54.549Z,4.20
2019-05-05T21:06:24.635Z,4.83
2019-05-05T21:08:54.551Z,4.27
2019-05-05T21:11:24.765Z,5.03
2019-05-05T21:13:54.533Z,4.90
2019-05-05T21:16:24.335Z,5.20
2019-05-05T21:18:54.155Z,4.57
2019-05-05T21:21:26.631Z,5.57
2019-05-05T21:23:58.046Z,6.07
2019-05-05T21:26:47.978Z,5.70
2019-05-05T21:29:18.168Z,5.50
2019-05-05T21:31:48.160Z,6.10
2019-05-05T21:34:18.498Z,5.17
2019-05-05T21:36:48.255Z,4.80
2019-05-05T21:39:18.087Z,5.50
2019-05-05T21:41:47.882Z,5.60
2019-05-05T21:44:19.285Z,5.37
2019-05-05T21:46:49.161Z,6.40
2019-05-05T21:49:19.388Z,6.00
2019-05-05T21:51:59.151Z,6.80
2019-05-05T21:54:37.846Z,6.70
2019-05-05T21:57:16.348Z,6.00
2019-05-05T21:59:55.175Z,5.97
2019-05-05T22:02:17.782Z,5.23
2019-05-05T22:04:47.620Z,5.70
2019-05-05T22:07:17.609Z,5.70
2019-05-05T22:09:47.714Z,6.07
2019-05-05T22:12:17.412Z,5.97
2019-05-05T22:14:47.090Z,6.00
2019-05-05T22:17:17.013Z,5.47
2019-05-05T22:20:04.061Z,5.50
2019-05-05T22:22:36.434Z,4.77
2019-05-05T22:25:06.587Z,5.23
2019-05-05T22:27:36.417Z,5.33
2019-05-05T22:30:10.143Z,5.30
2019-05-05T22:32:39.066Z,5.53
2019-05-05T22:35:09.065Z,5.90
2019-05-05T22:37:38.956Z,5.97
2019-05-05T22:40:09.573Z,5.57
2019-05-05T22:42:39.478Z,6.07
2019-05-05T22:45:09.395Z,5.93
2019-05-05T22:47:39.216Z,6.00
2019-05-05T22:50:08.811Z,6.73
2019-05-05T22:52:38.603Z,5.83
2019-05-05T22:55:08.397Z,5.53
2019-05-05T22:57:38.396Z,5.33
2019-05-05T23:00:23.838Z,5.50
2019-05-05T23:02:48.675Z,5.80
2019-05-05T23:05:46.495Z,6.80
2019-05-05T23:08:18.513Z,5.93
2019-05-05T23:10:47.435Z,5.30
2019-05-05T23:13:17.384Z,5.43
2019-05-05T23:15:54.486Z,5.70
2019-05-05T23:18:27.015Z,5.57
2019-05-05T23:21:27.721Z,6.10
2019-05-05T23:24:15.087Z,5.23
2019-05-05T23:26:45.787Z,5.80
2019-05-05T23:29:15.672Z,5.60
2019-05-05T23:31:45.435Z,6.30
2019-05-05T23:34:15.428Z,5.30
2019-05-05T23:36:45.138Z,5.70
2019-05-05T23:39:14.781Z,5.03
2019-05-05T23:41:44.768Z,5.17
2019-05-05T23:44:14.930Z,6.37
2019-05-05T23:46:44.717Z,5.60
2019-05-05T23:49:14.394Z,5.70
2019-05-05T23:51:44.224Z,5.53
2019-05-05T23:54:14.354Z,6.10
2019-05-05T23:56:44.334Z,6.80
2019-05-05T23:59:14.644Z,6.17
